sensor_id;sensor_type;location;lat;lon;timestamp;P1;durP1;ratioP1;P2;durP2;ratioP2
15228;SDS011;7717;47.792;12.076;2024-01-07T00:01:31;15.23;;;12.20;;
15228;SDS011;7717;47.792;12.076;2024-01-07T00:03:57;19.13;;;11.97;;
15228;SDS011;7717;47.792;12.076;2024-01-07T00:06:22;14.33;;;10.67;;
15228;SDS011;7717;47.792;12.076;2024-01-07T00:08:48;12.63;;;10.77;;
15228;SDS011;7717;47.792;12.076;2024-01-07T00:11:13;11.87;;;9.90;;
15228;SDS011;7717;47.792;12.076;2024-01-07T00:13:40;14.57;;;10.50;;
15228;SDS011;7717;47.792;12.076;2024-01-07T00:16:06;12.70;;;10.40;;
15228;SDS011;7717;47.792;12.076;2024-01-07T00:18:32;12.40;;;10.10;;
15228;SDS011;7717;47.792;12.076;2024-01-07T00:20:58;14.57;;;11.47;;
15228;SDS011;7717;47.792;12.076;2024-01-07T00:23:23;15.43;;;10.63;;
15228;SDS011;7717;47.792;12.076;2024-01-07T00:25:49;14.03;;;10.30;;
15228;SDS011;7717;47.792;12.076;2024-01-07T00:28:15;11.37;;;9.40;;
15228;SDS011;7717;47.792;12.076;2024-01-07T00:30:41;16.60;;;11.30;;
15228;SDS011;7717;47.792;12.076;2024-01-07T00:33:09;14.47;;;10.93;;
15228;SDS011;7717;47.792;12.076;2024-01-07T00:35:35;15.80;;;10.67;;
15228;SDS011;7717;47.792;12.076;2024-01-07T00:38:00;12.43;;;8.63;;
15228;SDS011;7717;47.792;12.076;2024-01-07T00:40:26;10.37;;;8.13;;
15228;SDS011;7717;47.792;12.076;2024-01-07T00:42:51;10.03;;;8.70;;
15228;SDS011;7717;47.792;12.076;2024-01-07T00:45:17;10.80;;;8.60;;
15228;SDS011;7717;47.792;12.076;2024-01-07T00:47:44;10.97;;;8.67;;
15228;SDS011;7717;47.792;12.076;2024-01-07T00:50:09;12.70;;;9.83;;
15228;SDS011;7717;47.792;12.076;2024-01-07T00:52:35;11.47;;;9.80;;
15228;SDS011;7717;47.792;12.076;2024-01-07T00:55:02;11.50;;;9.93;;
15228;SDS011;7717;47.792;12.076;2024-01-07T00:57:31;11.83;;;9.23;;
15228;SDS011;7717;47.792;12.076;2024-01-07T00:59:57;13.13;;;9.87;;
15228;SDS011;7717;47.792;12.076;2024-01-07T01:02:22;12.03;;;9.90;;
15228;SDS011;7717;47.792;12.076;2024-01-07T01:04:48;11.27;;;9.43;;
15228;SDS011;7717;47.792;12.076;2024-01-07T01:07:14;11.70;;;9.03;;
15228;SDS011;7717;47.792;12.076;2024-01-07T01:09:40;10.87;;;8.40;;
15228;SDS011;7717;47.792;12.076;2024-01-07T01:12:05;10.63;;;8.33;;
15228;SDS011;7717;47.792;12.076;2024-01-07T01:14:31;10.87;;;8.70;;
15228;SDS011;7717;47.792;12.076;2024-01-07T01:16:57;11.20;;;9.10;;
15228;SDS011;7717;47.792;12.076;2024-01-07T01:19:23;10.83;;;9.43;;
15228;SDS011;7717;47.792;12.076;2024-01-07T01:21:49;13.03;;;9.47;;
15228;SDS011;7717;47.792;12.076;2024-01-07T01:24:18;13.30;;;10.90;;
15228;SDS011;7717;47.792;12.076;2024-01-07T01:26:44;15.40;;;11.23;;
15228;SDS011;7717;47.792;12.076;2024-01-07T01:29:09;17.83;;;11.30;;
15228;SDS011;7717;47.792;12.076;2024-01-07T01:31:35;13.80;;;10.57;;
15228;SDS011;7717;47.792;12.076;2024-01-07T01:34:00;15.00;;;10.70;;
15228;SDS011;7717;47.792;12.076;2024-01-07T01:36:25;14.97;;;11.13;;
15228;SDS011;7717;47.792;12.076;2024-01-07T01:38:51;13.37;;;10.00;;
15228;SDS011;7717;47.792;12.076;2024-01-07T01:41:17;11.83;;;9.90;;
15228;SDS011;7717;47.792;12.076;2024-01-07T01:43:42;14.37;;;10.60;;
15228;SDS011;7717;47.792;12.076;2024-01-07T01:46:08;15.27;;;11.23;;
15228;SDS011;7717;47.792;12.076;2024-01-07T01:48:33;12.53;;;9.13;;
15228;SDS011;7717;47.792;12.076;2024-01-07T01:51:00;13.53;;;10.23;;
15228;SDS011;7717;47.792;12.076;2024-01-07T01:53:27;14.53;;;9.53;;
15228;SDS011;7717;47.792;12.076;2024-01-07T01:55:54;11.63;;;8.73;;
15228;SDS011;7717;47.792;12.076;2024-01-07T01:58:21;10.03;;;8.07;;
15228;SDS011;7717;47.792;12.076;2024-01-07T02:00:48;11.87;;;8.90;;
15228;SDS011;7717;47.792;12.076;2024-01-07T02:03:15;10.23;;;8.30;;
15228;SDS011;7717;47.792;12.076;2024-01-07T02:05:44;9.03;;;7.40;;
15228;SDS011;7717;47.792;12.076;2024-01-07T02:08:09;11.33;;;9.00;;
15228;SDS011;7717;47.792;12.076;2024-01-07T02:10:36;10.90;;;7.57;;
15228;SDS011;7717;47.792;12.076;2024-01-07T02:13:02;8.87;;;7.43;;
15228;SDS011;7717;47.792;12.076;2024-01-07T02:15:29;9.53;;;7.93;;
15228;SDS011;7717;47.792;12.076;2024-01-07T02:17:55;9.87;;;7.90;;
15228;SDS011;7717;47.792;12.076;2024-01-07T02:20:20;10.80;;;7.83;;
15228;SDS011;7717;47.792;12.076;2024-01-07T02:22:45;9.63;;;7.73;;
15228;SDS011;7717;47.792;12.076;2024-01-07T02:25:12;15.87;;;10.37;;
15228;SDS011;7717;47.792;12.076;2024-01-07T02:27:37;13.17;;;9.77;;
15228;SDS011;7717;47.792;12.076;2024-01-07T02:30:03;15.60;;;10.40;;
15228;SDS011;7717;47.792;12.076;2024-01-07T02:32:29;16.33;;;10.70;;
15228;SDS011;7717;47.792;12.076;2024-01-07T02:34:57;15.77;;;11.93;;
15228;SDS011;7717;47.792;12.076;2024-01-07T02:37:23;14.13;;;9.50;;
15228;SDS011;7717;47.792;12.076;2024-01-07T02:39:48;13.67;;;10.80;;
15228;SDS011;7717;47.792;12.076;2024-01-07T02:42:13;21.60;;;12.17;;
15228;SDS011;7717;47.792;12.076;2024-01-07T02:44:39;17.37;;;12.17;;
15228;SDS011;7717;47.792;12.076;2024-01-07T02:47:04;18.17;;;11.37;;
15228;SDS011;7717;47.792;12.076;2024-01-07T02:49:30;20.63;;;12.43;;
15228;SDS011;7717;47.792;12.076;2024-01-07T02:51:55;16.13;;;10.07;;
15228;SDS011;7717;47.792;12.076;2024-01-07T02:54:20;11.63;;;8.33;;
15228;SDS011;7717;47.792;12.076;2024-01-07T02:56:46;9.60;;;6.73;;
15228;SDS011;7717;47.792;12.076;2024-01-07T02:59:11;8.07;;;6.57;;
15228;SDS011;7717;47.792;12.076;2024-01-07T03:01:36;9.57;;;7.00;;
15228;SDS011;7717;47.792;12.076;2024-01-07T03:04:06;11.67;;;8.03;;
15228;SDS011;7717;47.792;12.076;2024-01-07T03:06:35;8.30;;;6.97;;
15228;SDS011;7717;47.792;12.076;2024-01-07T03:09:01;8.17;;;6.70;;
15228;SDS011;7717;47.792;12.076;2024-01-07T03:11:28;8.10;;;6.83;;
15228;SDS011;7717;47.792;12.076;2024-01-07T03:13:54;7.23;;;6.23;;
15228;SDS011;7717;47.792;12.076;2024-01-07T03:16:24;8.03;;;6.47;;
15228;SDS011;7717;47.792;12.076;2024-01-07T03:18:50;7.90;;;6.40;;
15228;SDS011;7717;47.792;12.076;2024-01-07T03:21:20;8.70;;;6.73;;
15228;SDS011;7717;47.792;12.076;2024-01-07T03:23:46;8.67;;;6.67;;
15228;SDS011;7717;47.792;12.076;2024-01-07T03:26:13;11.13;;;8.23;;
15228;SDS011;7717;47.792;12.076;2024-01-07T03:28:39;13.80;;;8.50;;
15228;SDS011;7717;47.792;12.076;2024-01-07T03:31:05;12.40;;;8.57;;
15228;SDS011;7717;47.792;12.076;2024-01-07T03:33:33;12.60;;;7.77;;
15228;SDS011;7717;47.792;12.076;2024-01-07T03:36:00;13.60;;;8.10;;
15228;SDS011;7717;47.792;12.076;2024-01-07T03:38:28;12.60;;;8.43;;
15228;SDS011;7717;47.792;12.076;2024-01-07T03:40:53;10.47;;;6.93;;
15228;SDS011;7717;47.792;12.076;2024-01-07T03:43:19;9.80;;;7.23;;
15228;SDS011;7717;47.792;12.076;2024-01-07T03:45:45;8.57;;;6.53;;
15228;SDS011;7717;47.792;12.076;2024-01-07T03:48:10;8.97;;;6.77;;
15228;SDS011;7717;47.792;12.076;2024-01-07T03:50:36;8.23;;;6.17;;
15228;SDS011;7717;47.792;12.076;2024-01-07T03:53:01;7.80;;;6.37;;
15228;SDS011;7717;47.792;12.076;2024-01-07T03:55:30;8.77;;;6.93;;
15228;SDS011;7717;47.792;12.076;2024-01-07T03:57:55;7.40;;;6.40;;
15228;SDS011;7717;47.792;12.076;2024-01-07T04:00:21;8.63;;;6.37;;
15228;SDS011;7717;47.792;12.076;2024-01-07T04:02:46;7.70;;;6.43;;
15228;SDS011;7717;47.792;12.076;2024-01-07T04:05:12;7.73;;;6.47;;
15228;SDS011;7717;47.792;12.076;2024-01-07T04:07:40;8.17;;;6.17;;
15228;SDS011;7717;47.792;12.076;2024-01-07T04:10:06;6.90;;;5.90;;
15228;SDS011;7717;47.792;12.076;2024-01-07T04:12:36;7.60;;;6.03;;
15228;SDS011;7717;47.792;12.076;2024-01-07T04:15:01;8.77;;;6.47;;
15228;SDS011;7717;47.792;12.076;2024-01-07T04:17:27;6.83;;;5.73;;
15228;SDS011;7717;47.792;12.076;2024-01-07T04:19:52;8.87;;;6.40;;
15228;SDS011;7717;47.792;12.076;2024-01-07T04:22:18;9.30;;;6.47;;
15228;SDS011;7717;47.792;12.076;2024-01-07T04:24:43;9.10;;;6.83;;
15228;SDS011;7717;47.792;12.076;2024-01-07T04:27:12;8.07;;;6.93;;
15228;SDS011;7717;47.792;12.076;2024-01-07T04:29:37;9.40;;;7.07;;
15228;SDS011;7717;47.792;12.076;2024-01-07T04:32:03;11.63;;;8.20;;
15228;SDS011;7717;47.792;12.076;2024-01-07T04:34:28;12.97;;;9.10;;
15228;SDS011;7717;47.792;12.076;2024-01-07T04:36:54;13.87;;;10.53;;
15228;SDS011;7717;47.792;12.076;2024-01-07T04:39:19;10.30;;;8.73;;
15228;SDS011;7717;47.792;12.076;2024-01-07T04:41:45;10.20;;;8.77;;
15228;SDS011;7717;47.792;12.076;2024-01-07T04:44:16;10.60;;;8.10;;
15228;SDS011;7717;47.792;12.076;2024-01-07T04:46:42;9.87;;;7.87;;
15228;SDS011;7717;47.792;12.076;2024-01-07T04:49:07;10.07;;;7.17;;
15228;SDS011;7717;47.792;12.076;2024-01-07T04:51:33;7.70;;;6.80;;
15228;SDS011;7717;47.792;12.076;2024-01-07T04:53:59;8.67;;;7.07;;
15228;SDS011;7717;47.792;12.076;2024-01-07T04:56:24;8.50;;;6.67;;
15228;SDS011;7717;47.792;12.076;2024-01-07T04:58:50;8.50;;;7.03;;
15228;SDS011;7717;47.792;12.076;2024-01-07T05:01:16;8.33;;;6.20;;
15228;SDS011;7717;47.792;12.076;2024-01-07T05:03:42;6.37;;;5.77;;
15228;SDS011;7717;47.792;12.076;2024-01-07T05:06:10;5.90;;;4.63;;
15228;SDS011;7717;47.792;12.076;2024-01-07T05:08:36;8.13;;;6.17;;
15228;SDS011;7717;47.792;12.076;2024-01-07T05:11:13;6.57;;;5.40;;
15228;SDS011;7717;47.792;12.076;2024-01-07T05:13:46;6.53;;;5.50;;
15228;SDS011;7717;47.792;12.076;2024-01-07T05:16:19;8.43;;;5.77;;
15228;SDS011;7717;47.792;12.076;2024-01-07T05:18:45;6.63;;;5.30;;
15228;SDS011;7717;47.792;12.076;2024-01-07T05:21:18;7.70;;;5.93;;
15228;SDS011;7717;47.792;12.076;2024-01-07T05:23:44;6.63;;;5.33;;
15228;SDS011;7717;47.792;12.076;2024-01-07T05:26:09;6.70;;;5.60;;
15228;SDS011;7717;47.792;12.076;2024-01-07T05:28:36;7.37;;;5.20;;
15228;SDS011;7717;47.792;12.076;2024-01-07T05:31:02;6.37;;;5.60;;
15228;SDS011;7717;47.792;12.076;2024-01-07T05:33:28;6.57;;;5.70;;
15228;SDS011;7717;47.792;12.076;2024-01-07T05:35:54;5.63;;;5.03;;
15228;SDS011;7717;47.792;12.076;2024-01-07T05:38:19;7.43;;;5.93;;
15228;SDS011;7717;47.792;12.076;2024-01-07T05:40:45;5.73;;;5.13;;
15228;SDS011;7717;47.792;12.076;2024-01-07T05:43:11;6.67;;;5.53;;
15228;SDS011;7717;47.792;12.076;2024-01-07T05:45:37;5.60;;;5.00;;
15228;SDS011;7717;47.792;12.076;2024-01-07T05:48:02;6.07;;;4.97;;
15228;SDS011;7717;47.792;12.076;2024-01-07T05:50:28;7.23;;;5.37;;
15228;SDS011;7717;47.792;12.076;2024-01-07T05:52:54;6.47;;;5.67;;
15228;SDS011;7717;47.792;12.076;2024-01-07T05:55:19;7.03;;;5.50;;
15228;SDS011;7717;47.792;12.076;2024-01-07T05:57:46;6.00;;;5.13;;
15228;SDS011;7717;47.792;12.076;2024-01-07T06:00:11;6.37;;;5.27;;
15228;SDS011;7717;47.792;12.076;2024-01-07T06:02:38;6.30;;;5.20;;
15228;SDS011;7717;47.792;12.076;2024-01-07T06:05:05;8.60;;;5.40;;
15228;SDS011;7717;47.792;12.076;2024-01-07T06:07:31;6.67;;;5.63;;
15228;SDS011;7717;47.792;12.076;2024-01-07T06:09:56;6.53;;;5.47;;
15228;SDS011;7717;47.792;12.076;2024-01-07T06:12:22;5.53;;;4.97;;
15228;SDS011;7717;47.792;12.076;2024-01-07T06:14:48;7.00;;;5.50;;
15228;SDS011;7717;47.792;12.076;2024-01-07T06:17:13;5.00;;;4.50;;
15228;SDS011;7717;47.792;12.076;2024-01-07T06:19:40;6.17;;;5.43;;
15228;SDS011;7717;47.792;12.076;2024-01-07T06:22:05;6.53;;;5.33;;
15228;SDS011;7717;47.792;12.076;2024-01-07T06:24:31;5.97;;;5.00;;
15228;SDS011;7717;47.792;12.076;2024-01-07T06:26:59;6.07;;;5.00;;
15228;SDS011;7717;47.792;12.076;2024-01-07T06:29:25;7.00;;;5.50;;
15228;SDS011;7717;47.792;12.076;2024-01-07T06:31:54;5.83;;;5.20;;
15228;SDS011;7717;47.792;12.076;2024-01-07T06:34:20;5.50;;;4.90;;
15228;SDS011;7717;47.792;12.076;2024-01-07T06:36:46;5.73;;;5.13;;
15228;SDS011;7717;47.792;12.076;2024-01-07T06:39:12;6.87;;;5.00;;
15228;SDS011;7717;47.792;12.076;2024-01-07T06:41:38;5.17;;;4.47;;
15228;SDS011;7717;47.792;12.076;2024-01-07T06:44:04;5.60;;;4.90;;
15228;SDS011;7717;47.792;12.076;2024-01-07T06:46:38;5.10;;;4.43;;
15228;SDS011;7717;47.792;12.076;2024-01-07T06:49:04;4.57;;;4.17;;
15228;SDS011;7717;47.792;12.076;2024-01-07T06:51:33;4.43;;;4.03;;
15228;SDS011;7717;47.792;12.076;2024-01-07T06:53:59;5.60;;;4.67;;
15228;SDS011;7717;47.792;12.076;2024-01-07T06:56:24;5.47;;;4.97;;
15228;SDS011;7717;47.792;12.076;2024-01-07T06:58:51;6.83;;;5.63;;
15228;SDS011;7717;47.792;12.076;2024-01-07T07:01:21;6.00;;;5.33;;
15228;SDS011;7717;47.792;12.076;2024-01-07T07:03:48;6.80;;;5.70;;
15228;SDS011;7717;47.792;12.076;2024-01-07T07:06:14;6.30;;;5.27;;
15228;SDS011;7717;47.792;12.076;2024-01-07T07:08:40;8.43;;;7.23;;
15228;SDS011;7717;47.792;12.076;2024-01-07T07:11:06;20.47;;;16.37;;
15228;SDS011;7717;47.792;12.076;2024-01-07T07:13:32;14.73;;;12.20;;
15228;SDS011;7717;47.792;12.076;2024-01-07T07:15:58;15.63;;;12.53;;
15228;SDS011;7717;47.792;12.076;2024-01-07T07:18:24;7.80;;;6.83;;
15228;SDS011;7717;47.792;12.076;2024-01-07T07:20:50;4.97;;;4.43;;
15228;SDS011;7717;47.792;12.076;2024-01-07T07:23:16;14.23;;;10.40;;
15228;SDS011;7717;47.792;12.076;2024-01-07T07:25:45;14.87;;;9.77;;
15228;SDS011;7717;47.792;12.076;2024-01-07T07:28:14;13.27;;;9.27;;
15228;SDS011;7717;47.792;12.076;2024-01-07T07:30:47;32.17;;;16.67;;
15228;SDS011;7717;47.792;12.076;2024-01-07T07:33:13;16.83;;;9.50;;
15228;SDS011;7717;47.792;12.076;2024-01-07T07:35:39;24.90;;;15.37;;
15228;SDS011;7717;47.792;12.076;2024-01-07T07:38:07;12.27;;;8.53;;
15228;SDS011;7717;47.792;12.076;2024-01-07T07:40:38;14.83;;;11.20;;
15228;SDS011;7717;47.792;12.076;2024-01-07T07:43:04;12.37;;;10.93;;
15228;SDS011;7717;47.792;12.076;2024-01-07T07:45:34;8.37;;;7.40;;
15228;SDS011;7717;47.792;12.076;2024-01-07T07:48:00;9.93;;;8.77;;
15228;SDS011;7717;47.792;12.076;2024-01-07T07:50:26;8.53;;;7.63;;
15228;SDS011;7717;47.792;12.076;2024-01-07T07:52:51;7.13;;;6.07;;
15228;SDS011;7717;47.792;12.076;2024-01-07T07:55:18;5.37;;;4.87;;
15228;SDS011;7717;47.792;12.076;2024-01-07T07:57:44;5.07;;;4.67;;
15228;SDS011;7717;47.792;12.076;2024-01-07T08:00:11;4.50;;;4.10;;
15228;SDS011;7717;47.792;12.076;2024-01-07T08:02:38;5.50;;;5.00;;
15228;SDS011;7717;47.792;12.076;2024-01-07T08:05:07;6.20;;;4.03;;
15228;SDS011;7717;47.792;12.076;2024-01-07T08:07:33;5.43;;;4.40;;
15228;SDS011;7717;47.792;12.076;2024-01-07T08:09:58;5.60;;;5.10;;
15228;SDS011;7717;47.792;12.076;2024-01-07T08:12:24;6.00;;;5.40;;
15228;SDS011;7717;47.792;12.076;2024-01-07T08:14:50;6.47;;;5.87;;
15228;SDS011;7717;47.792;12.076;2024-01-07T08:17:15;5.63;;;4.33;;
15228;SDS011;7717;47.792;12.076;2024-01-07T08:19:42;11.53;;;8.13;;
15228;SDS011;7717;47.792;12.076;2024-01-07T08:22:11;24.30;;;13.50;;
15228;SDS011;7717;47.792;12.076;2024-01-07T08:24:37;10.37;;;8.20;;
15228;SDS011;7717;47.792;12.076;2024-01-07T08:27:03;6.40;;;5.70;;
15228;SDS011;7717;47.792;12.076;2024-01-07T08:29:29;4.27;;;3.87;;
15228;SDS011;7717;47.792;12.076;2024-01-07T08:31:58;4.57;;;4.17;;
15228;SDS011;7717;47.792;12.076;2024-01-07T08:34:23;4.57;;;3.63;;
15228;SDS011;7717;47.792;12.076;2024-01-07T08:36:49;5.13;;;3.70;;
15228;SDS011;7717;47.792;12.076;2024-01-07T08:39:15;3.83;;;3.53;;
15228;SDS011;7717;47.792;12.076;2024-01-07T08:41:42;4.77;;;4.03;;
15228;SDS011;7717;47.792;12.076;2024-01-07T08:44:07;3.77;;;3.47;;
15228;SDS011;7717;47.792;12.076;2024-01-07T08:46:34;4.13;;;3.73;;
15228;SDS011;7717;47.792;12.076;2024-01-07T08:49:00;4.27;;;3.70;;
15228;SDS011;7717;47.792;12.076;2024-01-07T08:51:26;3.53;;;3.23;;
15228;SDS011;7717;47.792;12.076;2024-01-07T08:53:54;4.07;;;3.67;;
15228;SDS011;7717;47.792;12.076;2024-01-07T08:56:20;3.97;;;3.03;;
15228;SDS011;7717;47.792;12.076;2024-01-07T08:58:46;4.17;;;3.50;;
15228;SDS011;7717;47.792;12.076;2024-01-07T09:01:12;3.60;;;3.30;;
15228;SDS011;7717;47.792;12.076;2024-01-07T09:03:39;3.47;;;3.17;;
15228;SDS011;7717;47.792;12.076;2024-01-07T09:06:13;3.60;;;3.30;;
15228;SDS011;7717;47.792;12.076;2024-01-07T09:08:39;3.53;;;3.20;;
15228;SDS011;7717;47.792;12.076;2024-01-07T09:11:26;3.70;;;3.20;;
15228;SDS011;7717;47.792;12.076;2024-01-07T09:14:04;3.97;;;3.00;;
15228;SDS011;7717;47.792;12.076;2024-01-07T09:16:30;3.97;;;3.57;;
15228;SDS011;7717;47.792;12.076;2024-01-07T09:18:56;4.23;;;3.93;;
15228;SDS011;7717;47.792;12.076;2024-01-07T09:21:25;3.73;;;3.43;;
15228;SDS011;7717;47.792;12.076;2024-01-07T09:23:51;3.00;;;2.77;;
15228;SDS011;7717;47.792;12.076;2024-01-07T09:26:16;3.97;;;3.20;;
15228;SDS011;7717;47.792;12.076;2024-01-07T09:28:42;3.10;;;2.80;;
15228;SDS011;7717;47.792;12.076;2024-01-07T09:31:08;3.73;;;3.43;;
15228;SDS011;7717;47.792;12.076;2024-01-07T09:33:34;3.67;;;3.37;;
15228;SDS011;7717;47.792;12.076;2024-01-07T09:36:00;6.33;;;5.67;;
15228;SDS011;7717;47.792;12.076;2024-01-07T09:38:26;4.57;;;3.60;;
15228;SDS011;7717;47.792;12.076;2024-01-07T09:40:54;4.07;;;3.70;;
15228;SDS011;7717;47.792;12.076;2024-01-07T09:43:20;3.87;;;3.47;;
15228;SDS011;7717;47.792;12.076;2024-01-07T09:45:46;3.77;;;3.37;;
15228;SDS011;7717;47.792;12.076;2024-01-07T09:48:13;4.73;;;4.13;;
15228;SDS011;7717;47.792;12.076;2024-01-07T09:50:40;4.17;;;3.60;;
15228;SDS011;7717;47.792;12.076;2024-01-07T09:53:06;4.20;;;3.50;;
15228;SDS011;7717;47.792;12.076;2024-01-07T09:55:46;4.90;;;4.40;;
15228;SDS011;7717;47.792;12.076;2024-01-07T09:58:18;5.63;;;5.13;;
15228;SDS011;7717;47.792;12.076;2024-01-07T10:00:44;6.50;;;5.27;;
15228;SDS011;7717;47.792;12.076;2024-01-07T10:03:10;6.83;;;5.50;;
15228;SDS011;7717;47.792;12.076;2024-01-07T10:05:39;11.43;;;8.70;;
15228;SDS011;7717;47.792;12.076;2024-01-07T10:08:05;19.50;;;11.83;;
15228;SDS011;7717;47.792;12.076;2024-01-07T10:10:33;37.93;;;20.37;;
15228;SDS011;7717;47.792;12.076;2024-01-07T10:13:00;17.40;;;10.60;;
15228;SDS011;7717;47.792;12.076;2024-01-07T10:15:26;29.27;;;15.70;;
15228;SDS011;7717;47.792;12.076;2024-01-07T10:18:05;19.07;;;11.87;;
15228;SDS011;7717;47.792;12.076;2024-01-07T10:20:41;7.70;;;6.27;;
15228;SDS011;7717;47.792;12.076;2024-01-07T10:23:06;11.20;;;8.93;;
15228;SDS011;7717;47.792;12.076;2024-01-07T10:25:35;6.83;;;6.13;;
15228;SDS011;7717;47.792;12.076;2024-01-07T10:28:06;5.83;;;5.27;;
15228;SDS011;7717;47.792;12.076;2024-01-07T10:30:31;5.60;;;4.93;;
15228;SDS011;7717;47.792;12.076;2024-01-07T10:33:03;5.00;;;4.57;;
15228;SDS011;7717;47.792;12.076;2024-01-07T10:35:37;5.40;;;4.90;;
15228;SDS011;7717;47.792;12.076;2024-01-07T10:38:06;5.50;;;4.73;;
15228;SDS011;7717;47.792;12.076;2024-01-07T10:40:32;5.50;;;4.83;;
15228;SDS011;7717;47.792;12.076;2024-01-07T10:42:59;5.50;;;5.00;;
15228;SDS011;7717;47.792;12.076;2024-01-07T10:45:25;4.87;;;4.47;;
15228;SDS011;7717;47.792;12.076;2024-01-07T10:47:54;4.97;;;4.53;;
15228;SDS011;7717;47.792;12.076;2024-01-07T10:50:28;4.97;;;4.57;;
15228;SDS011;7717;47.792;12.076;2024-01-07T10:53:02;3.97;;;3.57;;
15228;SDS011;7717;47.792;12.076;2024-01-07T10:55:35;4.77;;;4.00;;
15228;SDS011;7717;47.792;12.076;2024-01-07T10:58:04;4.70;;;4.30;;
15228;SDS011;7717;47.792;12.076;2024-01-07T11:00:31;5.63;;;5.03;;
15228;SDS011;7717;47.792;12.076;2024-01-07T11:03:09;7.23;;;6.50;;
15228;SDS011;7717;47.792;12.076;2024-01-07T11:05:44;11.00;;;7.73;;
15228;SDS011;7717;47.792;12.076;2024-01-07T11:08:20;12.53;;;8.27;;
15228;SDS011;7717;47.792;12.076;2024-01-07T11:10:52;16.93;;;11.70;;
15228;SDS011;7717;47.792;12.076;2024-01-07T11:13:35;17.33;;;11.03;;
15228;SDS011;7717;47.792;12.076;2024-01-07T11:16:05;14.73;;;10.23;;
15228;SDS011;7717;47.792;12.076;2024-01-07T11:18:37;9.23;;;7.20;;
15228;SDS011;7717;47.792;12.076;2024-01-07T11:21:22;10.50;;;8.63;;
15228;SDS011;7717;47.792;12.076;2024-01-07T11:23:50;10.13;;;7.77;;
15228;SDS011;7717;47.792;12.076;2024-01-07T11:26:18;10.50;;;8.20;;
15228;SDS011;7717;47.792;12.076;2024-01-07T11:31:15;5.57;;;4.97;;
15228;SDS011;7717;47.792;12.076;2024-01-07T11:33:46;13.87;;;8.03;;
15228;SDS011;7717;47.792;12.076;2024-01-07T11:36:16;11.53;;;7.83;;
15228;SDS011;7717;47.792;12.076;2024-01-07T11:38:49;7.13;;;5.53;;
15228;SDS011;7717;47.792;12.076;2024-01-07T11:41:16;6.17;;;5.10;;
15228;SDS011;7717;47.792;12.076;2024-01-07T11:46:40;5.73;;;5.23;;
15228;SDS011;7717;47.792;12.076;2024-01-07T11:49:08;7.97;;;6.00;;
15228;SDS011;7717;47.792;12.076;2024-01-07T11:51:34;9.50;;;6.77;;
15228;SDS011;7717;47.792;12.076;2024-01-07T11:54:01;6.17;;;5.57;;
15228;SDS011;7717;47.792;12.076;2024-01-07T11:56:27;8.70;;;6.07;;
15228;SDS011;7717;47.792;12.076;2024-01-07T11:58:53;6.60;;;5.30;;
15228;SDS011;7717;47.792;12.076;2024-01-07T12:01:21;6.47;;;5.87;;
15228;SDS011;7717;47.792;12.076;2024-01-07T12:03:47;5.80;;;5.10;;
15228;SDS011;7717;47.792;12.076;2024-01-07T12:06:13;6.53;;;5.17;;
15228;SDS011;7717;47.792;12.076;2024-01-07T12:08:42;5.53;;;4.93;;
15228;SDS011;7717;47.792;12.076;2024-01-07T12:11:13;7.27;;;5.63;;
15228;SDS011;7717;47.792;12.076;2024-01-07T12:13:41;6.33;;;5.30;;
15228;SDS011;7717;47.792;12.076;2024-01-07T12:16:11;6.60;;;5.03;;
15228;SDS011;7717;47.792;12.076;2024-01-07T12:18:38;6.70;;;5.57;;
15228;SDS011;7717;47.792;12.076;2024-01-07T12:21:09;6.23;;;5.63;;
15228;SDS011;7717;47.792;12.076;2024-01-07T12:23:35;7.57;;;5.70;;
15228;SDS011;7717;47.792;12.076;2024-01-07T12:26:11;7.27;;;6.00;;
15228;SDS011;7717;47.792;12.076;2024-01-07T12:28:37;6.70;;;5.33;;
15228;SDS011;7717;47.792;12.076;2024-01-07T12:31:06;6.70;;;5.53;;
15228;SDS011;7717;47.792;12.076;2024-01-07T12:33:34;8.13;;;5.60;;
15228;SDS011;7717;47.792;12.076;2024-01-07T12:36:02;7.23;;;5.27;;
15228;SDS011;7717;47.792;12.076;2024-01-07T12:38:32;7.83;;;6.47;;
15228;SDS011;7717;47.792;12.076;2024-01-07T12:40:59;7.90;;;5.67;;
15228;SDS011;7717;47.792;12.076;2024-01-07T12:43:25;8.60;;;6.73;;
15228;SDS011;7717;47.792;12.076;2024-01-07T12:45:51;7.13;;;5.27;;
15228;SDS011;7717;47.792;12.076;2024-01-07T12:48:17;8.23;;;5.67;;
15228;SDS011;7717;47.792;12.076;2024-01-07T12:50:43;8.73;;;5.93;;
15228;SDS011;7717;47.792;12.076;2024-01-07T12:53:11;7.43;;;5.90;;
15228;SDS011;7717;47.792;12.076;2024-01-07T12:55:40;8.43;;;6.00;;
15228;SDS011;7717;47.792;12.076;2024-01-07T12:58:06;6.93;;;5.87;;
15228;SDS011;7717;47.792;12.076;2024-01-07T13:00:32;7.17;;;6.03;;
15228;SDS011;7717;47.792;12.076;2024-01-07T13:02:59;9.90;;;6.87;;
15228;SDS011;7717;47.792;12.076;2024-01-07T13:05:25;7.93;;;6.63;;
15228;SDS011;7717;47.792;12.076;2024-01-07T13:07:51;8.13;;;6.73;;
15228;SDS011;7717;47.792;12.076;2024-01-07T13:10:17;8.70;;;7.00;;
15228;SDS011;7717;47.792;12.076;2024-01-07T13:12:43;9.30;;;7.17;;
15228;SDS011;7717;47.792;12.076;2024-01-07T13:15:10;10.87;;;7.50;;
15228;SDS011;7717;47.792;12.076;2024-01-07T13:17:36;9.37;;;6.40;;
15228;SDS011;7717;47.792;12.076;2024-01-07T13:20:03;7.97;;;6.47;;
15228;SDS011;7717;47.792;12.076;2024-01-07T13:22:32;9.10;;;6.33;;
15228;SDS011;7717;47.792;12.076;2024-01-07T13:24:58;7.57;;;6.50;;
15228;SDS011;7717;47.792;12.076;2024-01-07T13:27:24;7.80;;;6.73;;
15228;SDS011;7717;47.792;12.076;2024-01-07T13:29:49;7.43;;;5.97;;
15228;SDS011;7717;47.792;12.076;2024-01-07T13:32:16;6.97;;;5.80;;
15228;SDS011;7717;47.792;12.076;2024-01-07T13:34:44;8.07;;;6.13;;
15228;SDS011;7717;47.792;12.076;2024-01-07T13:37:14;7.03;;;6.20;;
15228;SDS011;7717;47.792;12.076;2024-01-07T13:39:40;7.60;;;6.77;;
15228;SDS011;7717;47.792;12.076;2024-01-07T13:42:05;7.83;;;6.40;;
15228;SDS011;7717;47.792;12.076;2024-01-07T13:44:31;5.90;;;5.30;;
15228;SDS011;7717;47.792;12.076;2024-01-07T13:46:59;6.97;;;6.07;;
15228;SDS011;7717;47.792;12.076;2024-01-07T13:49:30;8.97;;;7.30;;
15228;SDS011;7717;47.792;12.076;2024-01-07T13:51:55;9.47;;;6.20;;
15228;SDS011;7717;47.792;12.076;2024-01-07T13:54:21;7.70;;;6.90;;
15228;SDS011;7717;47.792;12.076;2024-01-07T13:56:47;7.67;;;6.30;;
15228;SDS011;7717;47.792;12.076;2024-01-07T13:59:15;9.60;;;7.80;;
15228;SDS011;7717;47.792;12.076;2024-01-07T14:01:43;11.00;;;8.37;;
15228;SDS011;7717;47.792;12.076;2024-01-07T14:04:08;11.10;;;6.87;;
15228;SDS011;7717;47.792;12.076;2024-01-07T14:06:34;8.13;;;6.30;;
15228;SDS011;7717;47.792;12.076;2024-01-07T14:09:00;7.30;;;6.60;;
15228;SDS011;7717;47.792;12.076;2024-01-07T14:11:25;8.20;;;6.20;;
15228;SDS011;7717;47.792;12.076;2024-01-07T14:13:53;8.07;;;6.73;;
15228;SDS011;7717;47.792;12.076;2024-01-07T14:16:19;9.53;;;7.20;;
15228;SDS011;7717;47.792;12.076;2024-01-07T14:18:45;7.63;;;6.50;;
15228;SDS011;7717;47.792;12.076;2024-01-07T14:21:11;8.00;;;6.70;;
15228;SDS011;7717;47.792;12.076;2024-01-07T14:23:36;7.50;;;6.27;;
15228;SDS011;7717;47.792;12.076;2024-01-07T14:26:02;6.73;;;5.67;;
15228;SDS011;7717;47.792;12.076;2024-01-07T14:28:28;8.47;;;7.00;;
15228;SDS011;7717;47.792;12.076;2024-01-07T14:30:54;8.17;;;7.20;;
15228;SDS011;7717;47.792;12.076;2024-01-07T14:33:22;6.87;;;6.17;;
15228;SDS011;7717;47.792;12.076;2024-01-07T14:35:47;8.03;;;6.60;;
15228;SDS011;7717;47.792;12.076;2024-01-07T14:38:13;11.50;;;7.67;;
15228;SDS011;7717;47.792;12.076;2024-01-07T14:40:39;14.07;;;8.87;;
15228;SDS011;7717;47.792;12.076;2024-01-07T14:43:06;9.67;;;6.50;;
15228;SDS011;7717;47.792;12.076;2024-01-07T14:45:32;10.63;;;8.20;;